sensor_id;sensor_type;location;lat;lon;timestamp;pressure;altitude;pressure_sealevel;temperature
15062;BMP180;7630;50.306;8.566;2023-04-09T00:03:19;98648.00;;;11.30
15062;BMP180;7630;50.306;8.566;2023-04-09T00:07:22;98638.00;;;10.40
15062;BMP180;7630;50.306;8.566;2023-04-09T00:11:23;98638.00;;;10.00
15062;BMP180;7630;50.306;8.566;2023-04-09T00:15:24;98644.00;;;9.50
15062;BMP180;7630;50.306;8.566;2023-04-09T00:19:27;98632.00;;;10.20
15062;BMP180;7630;50.306;8.566;2023-04-09T00:23:28;98636.00;;;10.60
15062;BMP180;7630;50.306;8.566;2023-04-09T00:27:29;98630.00;;;10.30
15062;BMP180;7630;50.306;8.566;2023-04-09T00:31:30;98628.00;;;11.00
15062;BMP180;7630;50.306;8.566;2023-04-09T00:35:31;98633.00;;;11.00
15062;BMP180;7630;50.306;8.566;2023-04-09T00:39:32;98627.00;;;10.90
15062;BMP180;7630;50.306;8.566;2023-04-09T00:43:33;98616.00;;;10.80
15062;BMP180;7630;50.306;8.566;2023-04-09T00:47:34;98617.00;;;10.80
15062;BMP180;7630;50.306;8.566;2023-04-09T00:51:36;98607.00;;;10.70
15062;BMP180;7630;50.306;8.566;2023-04-09T00:55:39;98609.00;;;10.70
15062;BMP180;7630;50.306;8.566;2023-04-09T00:59:41;98610.00;;;10.60
15062;BMP180;7630;50.306;8.566;2023-04-09T01:03:43;98615.00;;;10.50
15062;BMP180;7630;50.306;8.566;2023-04-09T01:08:00;98616.00;;;10.30
15062;BMP180;7630;50.306;8.566;2023-04-09T01:16:28;98621.00;;;10.50
15062;BMP180;7630;50.306;8.566;2023-04-09T01:20:39;98615.00;;;10.50
15062;BMP180;7630;50.306;8.566;2023-04-09T01:28:53;98615.00;;;10.50
15062;BMP180;7630;50.306;8.566;2023-04-09T01:32:56;98609.00;;;10.50
15062;BMP180;7630;50.306;8.566;2023-04-09T01:37:01;98612.00;;;10.40
15062;BMP180;7630;50.306;8.566;2023-04-09T01:41:03;98613.00;;;10.40
15062;BMP180;7630;50.306;8.566;2023-04-09T01:45:06;98613.00;;;10.40
15062;BMP180;7630;50.306;8.566;2023-04-09T01:49:09;98616.00;;;10.00
15062;BMP180;7630;50.306;8.566;2023-04-09T01:53:10;98618.00;;;9.30
15062;BMP180;7630;50.306;8.566;2023-04-09T01:57:12;98623.00;;;8.80
15062;BMP180;7630;50.306;8.566;2023-04-09T02:01:15;98626.00;;;9.30
15062;BMP180;7630;50.306;8.566;2023-04-09T02:05:19;98614.00;;;8.90
15062;BMP180;7630;50.306;8.566;2023-04-09T02:09:23;98616.00;;;9.30
15062;BMP180;7630;50.306;8.566;2023-04-09T02:13:25;98619.00;;;9.60
15062;BMP180;7630;50.306;8.566;2023-04-09T02:17:27;98619.00;;;10.00
15062;BMP180;7630;50.306;8.566;2023-04-09T02:21:28;98618.00;;;10.10
15062;BMP180;7630;50.306;8.566;2023-04-09T02:25:30;98614.00;;;10.20
15062;BMP180;7630;50.306;8.566;2023-04-09T02:29:31;98622.00;;;10.30
15062;BMP180;7630;50.306;8.566;2023-04-09T02:33:32;98622.00;;;10.20
15062;BMP180;7630;50.306;8.566;2023-04-09T02:37:34;98611.00;;;10.30
15062;BMP180;7630;50.306;8.566;2023-04-09T02:41:35;98617.00;;;10.30
15062;BMP180;7630;50.306;8.566;2023-04-09T02:45:36;98612.00;;;10.30
15062;BMP180;7630;50.306;8.566;2023-04-09T02:49:37;98616.00;;;10.00
15062;BMP180;7630;50.306;8.566;2023-04-09T02:53:38;98616.00;;;10.10
15062;BMP180;7630;50.306;8.566;2023-04-09T02:57:40;98613.00;;;9.60
15062;BMP180;7630;50.306;8.566;2023-04-09T03:01:42;98613.00;;;9.70
15062;BMP180;7630;50.306;8.566;2023-04-09T03:05:43;98608.00;;;10.10
15062;BMP180;7630;50.306;8.566;2023-04-09T03:09:44;98608.00;;;10.30
15062;BMP180;7630;50.306;8.566;2023-04-09T03:13:45;98599.00;;;10.20
15062;BMP180;7630;50.306;8.566;2023-04-09T03:17:46;98586.00;;;10.20
15062;BMP180;7630;50.306;8.566;2023-04-09T03:21:48;98592.00;;;10.20
15062;BMP180;7630;50.306;8.566;2023-04-09T03:25:58;98588.00;;;10.30
15062;BMP180;7630;50.306;8.566;2023-04-09T03:29:58;98593.00;;;10.10
15062;BMP180;7630;50.306;8.566;2023-04-09T03:33:59;98589.00;;;10.00
15062;BMP180;7630;50.306;8.566;2023-04-09T03:38:00;98584.00;;;10.20
15062;BMP180;7630;50.306;8.566;2023-04-09T03:42:02;98581.00;;;10.30
15062;BMP180;7630;50.306;8.566;2023-04-09T03:46:14;98579.00;;;10.10
15062;BMP180;7630;50.306;8.566;2023-04-09T03:50:16;98589.00;;;10.00
15062;BMP180;7630;50.306;8.566;2023-04-09T03:54:17;98586.00;;;10.10
15062;BMP180;7630;50.306;8.566;2023-04-09T03:58:18;98586.00;;;10.30
15062;BMP180;7630;50.306;8.566;2023-04-09T04:02:19;98580.00;;;10.20
15062;BMP180;7630;50.306;8.566;2023-04-09T04:06:21;98588.00;;;10.00
15062;BMP180;7630;50.306;8.566;2023-04-09T04:10:22;98583.00;;;9.90
15062;BMP180;7630;50.306;8.566;2023-04-09T04:14:23;98580.00;;;10.20
15062;BMP180;7630;50.306;8.566;2023-04-09T04:18:24;98577.00;;;10.10
15062;BMP180;7630;50.306;8.566;2023-04-09T04:22:26;98583.00;;;10.30
15062;BMP180;7630;50.306;8.566;2023-04-09T04:26:27;98594.00;;;10.30
15062;BMP180;7630;50.306;8.566;2023-04-09T04:30:28;98584.00;;;10.30
15062;BMP180;7630;50.306;8.566;2023-04-09T04:34:29;98589.00;;;9.90
15062;BMP180;7630;50.306;8.566;2023-04-09T04:38:30;98587.00;;;10.20
15062;BMP180;7630;50.306;8.566;2023-04-09T04:42:31;98593.00;;;10.40
15062;BMP180;7630;50.306;8.566;2023-04-09T04:46:32;98600.00;;;10.30
15062;BMP180;7630;50.306;8.566;2023-04-09T04:50:33;98591.00;;;10.40
15062;BMP180;7630;50.306;8.566;2023-04-09T04:54:35;98608.00;;;10.30
15062;BMP180;7630;50.306;8.566;2023-04-09T04:58:36;98599.00;;;10.20
15062;BMP180;7630;50.306;8.566;2023-04-09T05:02:37;98596.00;;;10.40
15062;BMP180;7630;50.306;8.566;2023-04-09T05:06:38;98596.00;;;10.40
15062;BMP180;7630;50.306;8.566;2023-04-09T05:10:40;98603.00;;;10.50
15062;BMP180;7630;50.306;8.566;2023-04-09T05:14:43;98601.00;;;10.50
15062;BMP180;7630;50.306;8.566;2023-04-09T05:18:44;98598.00;;;10.60
15062;BMP180;7630;50.306;8.566;2023-04-09T05:22:46;98601.00;;;10.60
15062;BMP180;7630;50.306;8.566;2023-04-09T05:26:47;98613.00;;;10.70
15062;BMP180;7630;50.306;8.566;2023-04-09T05:30:48;98607.00;;;10.60
15062;BMP180;7630;50.306;8.566;2023-04-09T05:34:49;98608.00;;;10.30
15062;BMP180;7630;50.306;8.566;2023-04-09T05:38:50;98606.00;;;10.70
15062;BMP180;7630;50.306;8.566;2023-04-09T05:42:52;98611.00;;;10.80
15062;BMP180;7630;50.306;8.566;2023-04-09T05:46:53;98615.00;;;11.00
15062;BMP180;7630;50.306;8.566;2023-04-09T05:50:54;98614.00;;;11.10
15062;BMP180;7630;50.306;8.566;2023-04-09T05:58:59;98617.00;;;11.00
15062;BMP180;7630;50.306;8.566;2023-04-09T06:03:00;98619.00;;;11.40
15062;BMP180;7630;50.306;8.566;2023-04-09T06:07:01;98617.00;;;11.60
15062;BMP180;7630;50.306;8.566;2023-04-09T06:11:02;98613.00;;;10.40
15062;BMP180;7630;50.306;8.566;2023-04-09T06:15:04;98615.00;;;11.30
15062;BMP180;7630;50.306;8.566;2023-04-09T06:19:05;98628.00;;;12.00
15062;BMP180;7630;50.306;8.566;2023-04-09T06:23:06;98622.00;;;12.30
15062;BMP180;7630;50.306;8.566;2023-04-09T06:27:08;98617.00;;;12.30
15062;BMP180;7630;50.306;8.566;2023-04-09T06:31:09;98620.00;;;12.50
15062;BMP180;7630;50.306;8.566;2023-04-09T06:35:10;98622.00;;;13.00
15062;BMP180;7630;50.306;8.566;2023-04-09T06:39:11;98622.00;;;13.00
15062;BMP180;7630;50.306;8.566;2023-04-09T06:43:12;98628.00;;;13.40
15062;BMP180;7630;50.306;8.566;2023-04-09T06:47:13;98637.00;;;13.40
15062;BMP180;7630;50.306;8.566;2023-04-09T06:51:15;98632.00;;;13.30
15062;BMP180;7630;50.306;8.566;2023-04-09T06:55:16;98630.00;;;12.30
15062;BMP180;7630;50.306;8.566;2023-04-09T06:59:18;98633.00;;;12.00
15062;BMP180;7630;50.306;8.566;2023-04-09T07:03:19;98625.00;;;13.20
15062;BMP180;7630;50.306;8.566;2023-04-09T07:07:20;98633.00;;;13.80
15062;BMP180;7630;50.306;8.566;2023-04-09T07:11:24;98644.00;;;14.30
15062;BMP180;7630;50.306;8.566;2023-04-09T07:15:25;98633.00;;;12.60
15062;BMP180;7630;50.306;8.566;2023-04-09T07:19:26;98637.00;;;13.80
15062;BMP180;7630;50.306;8.566;2023-04-09T07:23:27;98633.00;;;12.70
15062;BMP180;7630;50.306;8.566;2023-04-09T07:27:28;98632.00;;;12.30
15062;BMP180;7630;50.306;8.566;2023-04-09T07:31:29;98638.00;;;13.30
15062;BMP180;7630;50.306;8.566;2023-04-09T07:35:31;98634.00;;;15.10
15062;BMP180;7630;50.306;8.566;2023-04-09T07:39:34;98641.00;;;15.10
15062;BMP180;7630;50.306;8.566;2023-04-09T07:43:35;98638.00;;;15.20
15062;BMP180;7630;50.306;8.566;2023-04-09T07:47:37;98639.00;;;14.40
15062;BMP180;7630;50.306;8.566;2023-04-09T07:51:40;98639.00;;;13.30
15062;BMP180;7630;50.306;8.566;2023-04-09T07:55:41;98641.00;;;13.90
15062;BMP180;7630;50.306;8.566;2023-04-09T07:59:42;98645.00;;;14.40
15062;BMP180;7630;50.306;8.566;2023-04-09T08:03:43;98643.00;;;14.70
15062;BMP180;7630;50.306;8.566;2023-04-09T08:07:45;98644.00;;;14.40
15062;BMP180;7630;50.306;8.566;2023-04-09T08:11:47;98650.00;;;13.70
15062;BMP180;7630;50.306;8.566;2023-04-09T08:15:48;98643.00;;;14.50
15062;BMP180;7630;50.306;8.566;2023-04-09T08:19:49;98647.00;;;14.20
15062;BMP180;7630;50.306;8.566;2023-04-09T08:23:50;98656.00;;;14.70
15062;BMP180;7630;50.306;8.566;2023-04-09T08:27:52;98663.00;;;15.70
15062;BMP180;7630;50.306;8.566;2023-04-09T08:31:53;98659.00;;;15.50
15062;BMP180;7630;50.306;8.566;2023-04-09T08:35:54;98665.00;;;14.60
15062;BMP180;7630;50.306;8.566;2023-04-09T08:39:55;98672.00;;;16.20
15062;BMP180;7630;50.306;8.566;2023-04-09T08:43:57;98675.00;;;15.80
15062;BMP180;7630;50.306;8.566;2023-04-09T08:48:01;98671.00;;;15.40
15062;BMP180;7630;50.306;8.566;2023-04-09T08:52:03;98677.00;;;15.70
15062;BMP180;7630;50.306;8.566;2023-04-09T08:56:04;98676.00;;;14.40
15062;BMP180;7630;50.306;8.566;2023-04-09T09:00:07;98545.00;;;14.90
15062;BMP180;7630;50.306;8.566;2023-04-09T09:04:09;98671.00;;;13.20
15062;BMP180;7630;50.306;8.566;2023-04-09T09:08:13;98678.00;;;15.20
15062;BMP180;7630;50.306;8.566;2023-04-09T09:12:35;98675.00;;;15.30
15062;BMP180;7630;50.306;8.566;2023-04-09T09:16:22;98678.00;;;14.40
15062;BMP180;7630;50.306;8.566;2023-04-09T09:20:24;98675.00;;;14.50
15062;BMP180;7630;50.306;8.566;2023-04-09T09:24:26;98675.00;;;14.50
15062;BMP180;7630;50.306;8.566;2023-04-09T09:28:33;98679.00;;;14.60
15062;BMP180;7630;50.306;8.566;2023-04-09T09:32:32;98682.00;;;15.10
15062;BMP180;7630;50.306;8.566;2023-04-09T09:36:34;98672.00;;;16.10
15062;BMP180;7630;50.306;8.566;2023-04-09T09:40:35;98671.00;;;15.80
15062;BMP180;7630;50.306;8.566;2023-04-09T09:44:36;98669.00;;;14.90
15062;BMP180;7630;50.306;8.566;2023-04-09T09:48:38;98677.00;;;16.00
15062;BMP180;7630;50.306;8.566;2023-04-09T09:52:41;98681.00;;;15.70
15062;BMP180;7630;50.306;8.566;2023-04-09T09:56:44;98678.00;;;15.70
15062;BMP180;7630;50.306;8.566;2023-04-09T10:00:46;98673.00;;;15.40
15062;BMP180;7630;50.306;8.566;2023-04-09T10:04:49;98681.00;;;15.90
15062;BMP180;7630;50.306;8.566;2023-04-09T10:08:55;98675.00;;;16.20
15062;BMP180;7630;50.306;8.566;2023-04-09T10:12:58;98669.00;;;14.70
15062;BMP180;7630;50.306;8.566;2023-04-09T10:16:59;98672.00;;;15.80
15062;BMP180;7630;50.306;8.566;2023-04-09T10:21:07;98664.00;;;16.70
15062;BMP180;7630;50.306;8.566;2023-04-09T10:25:10;98660.00;;;15.60
15062;BMP180;7630;50.306;8.566;2023-04-09T10:29:13;98674.00;;;16.60
15062;BMP180;7630;50.306;8.566;2023-04-09T10:33:21;98690.00;;;16.60
15062;BMP180;7630;50.306;8.566;2023-04-09T10:37:24;98666.00;;;16.70
15062;BMP180;7630;50.306;8.566;2023-04-09T10:41:27;98657.00;;;17.10
15062;BMP180;7630;50.306;8.566;2023-04-09T10:45:40;98653.00;;;15.60
15062;BMP180;7630;50.306;8.566;2023-04-09T10:49:41;98653.00;;;15.10
15062;BMP180;7630;50.306;8.566;2023-04-09T10:53:43;98655.00;;;16.70
15062;BMP180;7630;50.306;8.566;2023-04-09T10:57:44;98656.00;;;16.40
15062;BMP180;7630;50.306;8.566;2023-04-09T11:01:53;98653.00;;;15.40
15062;BMP180;7630;50.306;8.566;2023-04-09T11:06:02;98658.00;;;15.60
15062;BMP180;7630;50.306;8.566;2023-04-09T11:10:06;98658.00;;;15.30
15062;BMP180;7630;50.306;8.566;2023-04-09T11:14:08;98657.00;;;16.70
15062;BMP180;7630;50.306;8.566;2023-04-09T11:18:29;98657.00;;;16.60
15062;BMP180;7630;50.306;8.566;2023-04-09T11:22:17;98656.00;;;16.10
15062;BMP180;7630;50.306;8.566;2023-04-09T11:26:34;98656.00;;;16.50
15062;BMP180;7630;50.306;8.566;2023-04-09T11:30:35;98647.00;;;17.20
15062;BMP180;7630;50.306;8.566;2023-04-09T11:34:37;98648.00;;;16.60
15062;BMP180;7630;50.306;8.566;2023-04-09T11:38:38;98641.00;;;15.00
15062;BMP180;7630;50.306;8.566;2023-04-09T11:42:39;98646.00;;;17.10
15062;BMP180;7630;50.306;8.566;2023-04-09T11:46:41;98643.00;;;15.90
15062;BMP180;7630;50.306;8.566;2023-04-09T11:50:42;98646.00;;;15.30
15062;BMP180;7630;50.306;8.566;2023-04-09T11:54:49;98637.00;;;15.80
15062;BMP180;7630;50.306;8.566;2023-04-09T11:58:52;98658.00;;;15.10
15062;BMP180;7630;50.306;8.566;2023-04-09T12:03:02;98648.00;;;16.20
15062;BMP180;7630;50.306;8.566;2023-04-09T12:07:08;98638.00;;;14.50
15062;BMP180;7630;50.306;8.566;2023-04-09T12:11:11;98641.00;;;14.80
15062;BMP180;7630;50.306;8.566;2023-04-09T12:19:23;98633.00;;;17.70
15062;BMP180;7630;50.306;8.566;2023-04-09T12:23:25;98639.00;;;17.30
15062;BMP180;7630;50.306;8.566;2023-04-09T12:27:26;98633.00;;;16.00
15062;BMP180;7630;50.306;8.566;2023-04-09T12:31:27;98634.00;;;17.20
15062;BMP180;7630;50.306;8.566;2023-04-09T12:35:28;98629.00;;;15.20
15062;BMP180;7630;50.306;8.566;2023-04-09T12:39:30;98630.00;;;15.40
15062;BMP180;7630;50.306;8.566;2023-04-09T12:43:33;98628.00;;;16.00
15062;BMP180;7630;50.306;8.566;2023-04-09T12:47:34;98629.00;;;16.40
15062;BMP180;7630;50.306;8.566;2023-04-09T12:51:35;98620.00;;;17.60
15062;BMP180;7630;50.306;8.566;2023-04-09T12:55:36;98615.00;;;18.50
15062;BMP180;7630;50.306;8.566;2023-04-09T12:59:37;98612.00;;;16.70
15062;BMP180;7630;50.306;8.566;2023-04-09T13:03:38;98620.00;;;17.40
15062;BMP180;7630;50.306;8.566;2023-04-09T13:07:41;98617.00;;;17.90
15062;BMP180;7630;50.306;8.566;2023-04-09T13:11:43;98613.00;;;15.20
15062;BMP180;7630;50.306;8.566;2023-04-09T13:15:45;98600.00;;;15.30
15062;BMP180;7630;50.306;8.566;2023-04-09T13:19:46;98604.00;;;15.00
15062;BMP180;7630;50.306;8.566;2023-04-09T13:23:47;98597.00;;;16.00
15062;BMP180;7630;50.306;8.566;2023-04-09T13:27:48;98597.00;;;17.50
15062;BMP180;7630;50.306;8.566;2023-04-09T13:31:49;98594.00;;;18.00
15062;BMP180;7630;50.306;8.566;2023-04-09T13:35:51;98586.00;;;18.60
15062;BMP180;7630;50.306;8.566;2023-04-09T13:39:52;98590.00;;;18.70
15062;BMP180;7630;50.306;8.566;2023-04-09T13:43:53;98589.00;;;19.40
15062;BMP180;7630;50.306;8.566;2023-04-09T13:47:54;98580.00;;;19.50
15062;BMP180;7630;50.306;8.566;2023-04-09T13:51:56;98571.00;;;18.30
15062;BMP180;7630;50.306;8.566;2023-04-09T13:55:57;98570.00;;;17.70
15062;BMP180;7630;50.306;8.566;2023-04-09T13:59:58;98569.00;;;19.00
15062;BMP180;7630;50.306;8.566;2023-04-09T14:04:01;98558.00;;;17.30
15062;BMP180;7630;50.306;8.566;2023-04-09T14:08:03;98569.00;;;16.50
15062;BMP180;7630;50.306;8.566;2023-04-09T14:12:04;98557.00;;;17.50
15062;BMP180;7630;50.306;8.566;2023-04-09T14:16:06;98564.00;;;16.80
15062;BMP180;7630;50.306;8.566;2023-04-09T14:20:07;98555.00;;;17.30
15062;BMP180;7630;50.306;8.566;2023-04-09T14:24:09;98561.00;;;17.20
15062;BMP180;7630;50.306;8.566;2023-04-09T14:28:10;98561.00;;;17.50
15062;BMP180;7630;50.306;8.566;2023-04-09T14:32:11;98572.00;;;16.80
15062;BMP180;7630;50.306;8.566;2023-04-09T14:36:12;98556.00;;;16.60
15062;BMP180;7630;50.306;8.566;2023-04-09T14:40:14;98551.00;;;15.90
15062;BMP180;7630;50.306;8.566;2023-04-09T14:44:15;98543.00;;;16.40
15062;BMP180;7630;50.306;8.566;2023-04-09T14:48:16;98553.00;;;17.90
15062;BMP180;7630;50.306;8.566;2023-04-09T14:52:17;98536.00;;;17.70
15062;BMP180;7630;50.306;8.566;2023-04-09T14:56:18;98534.00;;;17.80
15062;BMP180;7630;50.306;8.566;2023-04-09T15:00:20;98535.00;;;17.60
15062;BMP180;7630;50.306;8.566;2023-04-09T15:04:21;98537.00;;;16.90
15062;BMP180;7630;50.306;8.566;2023-04-09T15:08:23;98538.00;;;15.90
15062;BMP180;7630;50.306;8.566;2023-04-09T15:12:29;98530.00;;;16.50
15062;BMP180;7630;50.306;8.566;2023-04-09T15:16:31;98524.00;;;15.50
15062;BMP180;7630;50.306;8.566;2023-04-09T15:20:36;98523.00;;;16.60
15062;BMP180;7630;50.306;8.566;2023-04-09T15:24:37;98527.00;;;16.40
15062;BMP180;7630;50.306;8.566;2023-04-09T15:28:39;98526.00;;;18.20
15062;BMP180;7630;50.306;8.566;2023-04-09T15:32:40;98519.00;;;18.40
15062;BMP180;7630;50.306;8.566;2023-04-09T15:36:43;98513.00;;;17.60
15062;BMP180;7630;50.306;8.566;2023-04-09T15:40:44;98511.00;;;15.40
15062;BMP180;7630;50.306;8.566;2023-04-09T15:44:46;98508.00;;;15.80
15062;BMP180;7630;50.306;8.566;2023-04-09T15:48:49;98513.00;;;17.00
15062;BMP180;7630;50.306;8.566;2023-04-09T15:52:50;98511.00;;;18.20
15062;BMP180;7630;50.306;8.566;2023-04-09T15:56:51;98504.00;;;17.20
15062;BMP180;7630;50.306;8.566;2023-04-09T16:00:52;98504.00;;;17.50
15062;BMP180;7630;50.306;8.566;2023-04-09T16:04:54;98508.00;;;17.50
15062;BMP180;7630;50.306;8.566;2023-04-09T16:08:55;98492.00;;;18.10
15062;BMP180;7630;50.306;8.566;2023-04-09T16:12:56;98493.00;;;17.70
15062;BMP180;7630;50.306;8.566;2023-04-09T16:16:58;98496.00;;;18.40
15062;BMP180;7630;50.306;8.566;2023-04-09T16:20:59;98492.00;;;18.40
15062;BMP180;7630;50.306;8.566;2023-04-09T16:25:00;98497.00;;;18.70
15062;BMP180;7630;50.306;8.566;2023-04-09T16:29:01;98499.00;;;17.90
15062;BMP180;7630;50.306;8.566;2023-04-09T16:33:03;98496.00;;;18.60
15062;BMP180;7630;50.306;8.566;2023-04-09T16:37:05;98491.00;;;17.80
15062;BMP180;7630;50.306;8.566;2023-04-09T16:41:07;98496.00;;;17.80
15062;BMP180;7630;50.306;8.566;2023-04-09T16:45:09;98500.00;;;16.40
15062;BMP180;7630;50.306;8.566;2023-04-09T16:49:10;98500.00;;;17.00
15062;BMP180;7630;50.306;8.566;2023-04-09T16:53:12;98499.00;;;17.60
15062;BMP180;7630;50.306;8.566;2023-04-09T16:57:13;98502.00;;;17.30
15062;BMP180;7630;50.306;8.566;2023-04-09T17:01:14;98495.00;;;18.00
15062;BMP180;7630;50.306;8.566;2023-04-09T17:05:15;98490.00;;;16.20
15062;BMP180;7630;50.306;8.566;2023-04-09T17:09:17;98486.00;;;16.20
15062;BMP180;7630;50.306;8.566;2023-04-09T17:13:19;98480.00;;;16.20
15062;BMP180;7630;50.306;8.566;2023-04-09T17:17:21;98481.00;;;16.40
15062;BMP180;7630;50.306;8.566;2023-04-09T17:21:22;98489.00;;;15.70
15062;BMP180;7630;50.306;8.566;2023-04-09T17:25:23;98483.00;;;15.90
15062;BMP180;7630;50.306;8.566;2023-04-09T17:29:24;98485.00;;;15.30
15062;BMP180;7630;50.306;8.566;2023-04-09T17:33:26;98492.00;;;15.50
15062;BMP180;7630;50.306;8.566;2023-04-09T17:37:27;98495.00;;;15.10
15062;BMP180;7630;50.306;8.566;2023-04-09T17:41:29;98504.00;;;14.60
15062;BMP180;7630;50.306;8.566;2023-04-09T17:45:30;98501.00;;;15.50
15062;BMP180;7630;50.306;8.566;2023-04-09T17:49:32;98500.00;;;15.90
15062;BMP180;7630;50.306;8.566;2023-04-09T17:53:33;98494.00;;;16.00
15062;BMP180;7630;50.306;8.566;2023-04-09T17:57:34;98501.00;;;15.80
15062;BMP180;7630;50.306;8.566;2023-04-09T18:01:36;98502.00;;;15.60
15062;BMP180;7630;50.306;8.566;2023-04-09T18:05:37;98512.00;;;15.40
15062;BMP180;7630;50.306;8.566;2023-04-09T18:09:38;98514.00;;;14.70
15062;BMP180;7630;50.306;8.566;2023-04-09T18:13:40;98506.00;;;14.20
15062;BMP180;7630;50.306;8.566;2023-04-09T18:17:41;98506.00;;;14.20
15062;BMP180;7630;50.306;8.566;2023-04-09T18:21:43;98516.00;;;13.70
15062;BMP180;7630;50.306;8.566;2023-04-09T18:25:44;98510.00;;;13.20
15062;BMP180;7630;50.306;8.566;2023-04-09T18:29:45;98522.00;;;13.00
15062;BMP180;7630;50.306;8.566;2023-04-09T18:33:46;98518.00;;;13.20
15062;BMP180;7630;50.306;8.566;2023-04-09T18:37:47;98542.00;;;14.00
15062;BMP180;7630;50.306;8.566;2023-04-09T18:41:49;98525.00;;;14.00
15062;BMP180;7630;50.306;8.566;2023-04-09T18:45:51;98519.00;;;14.00
15062;BMP180;7630;50.306;8.566;2023-04-09T18:49:52;98522.00;;;13.90
15062;BMP180;7630;50.306;8.566;2023-04-09T18:53:53;98521.00;;;12.30
15062;BMP180;7630;50.306;8.566;2023-04-09T18:57:55;98514.00;;;11.80
15062;BMP180;7630;50.306;8.566;2023-04-09T19:01:57;98516.00;;;13.00
15062;BMP180;7630;50.306;8.566;2023-04-09T19:05:58;98518.00;;;13.20
15062;BMP180;7630;50.306;8.566;2023-04-09T19:09:59;98521.00;;;13.10
15062;BMP180;7630;50.306;8.566;2023-04-09T19:14:02;98528.00;;;12.90
15062;BMP180;7630;50.306;8.566;2023-04-09T19:18:03;98540.00;;;12.80
15062;BMP180;7630;50.306;8.566;2023-04-09T19:22:05;98539.00;;;12.60
15062;BMP180;7630;50.306;8.566;2023-04-09T19:26:07;98530.00;;;12.40
15062;BMP180;7630;50.306;8.566;2023-04-09T19:30:10;98534.00;;;12.30
15062;BMP180;7630;50.306;8.566;2023-04-09T19:34:11;98536.00;;;12.10
15062;BMP180;7630;50.306;8.566;2023-04-09T19:38:13;98525.00;;;12.10
15062;BMP180;7630;50.306;8.566;2023-04-09T19:42:14;98520.00;;;11.90
15062;BMP180;7630;50.306;8.566;2023-04-09T19:46:15;98521.00;;;11.70
15062;BMP180;7630;50.306;8.566;2023-04-09T19:50:17;98531.00;;;11.60
15062;BMP180;7630;50.306;8.566;2023-04-09T19:54:18;98521.00;;;11.50
15062;BMP180;7630;50.306;8.566;2023-04-09T19:58:19;98519.00;;;11.40
15062;BMP180;7630;50.306;8.566;2023-04-09T20:02:21;98523.00;;;11.30
15062;BMP180;7630;50.306;8.566;2023-04-09T20:06:24;98519.00;;;11.10
15062;BMP180;7630;50.306;8.566;2023-04-09T20:10:25;98518.00;;;11.00
15062;BMP180;7630;50.306;8.566;2023-04-09T20:14:27;98521.00;;;10.80
15062;BMP180;7630;50.306;8.566;2023-04-09T20:18:28;98517.00;;;10.80
15062;BMP180;7630;50.306;8.566;2023-04-09T20:22:29;98516.00;;;10.20
15062;BMP180;7630;50.306;8.566;2023-04-09T20:26:30;98518.00;;;10.50
15062;BMP180;7630;50.306;8.566;2023-04-09T20:30:32;98518.00;;;9.80
15062;BMP180;7630;50.306;8.566;2023-04-09T20:34:33;98517.00;;;10.30
15062;BMP180;7630;50.306;8.566;2023-04-09T20:38:34;98518.00;;;10.30
15062;BMP180;7630;50.306;8.566;2023-04-09T20:42:37;98514.00;;;10.40
15062;BMP180;7630;50.306;8.566;2023-04-09T20:46:38;98516.00;;;10.60
15062;BMP180;7630;50.306;8.566;2023-04-09T20:50:39;98516.00;;;10.60
15062;BMP180;7630;50.306;8.566;2023-04-09T20:54:40;98520.00;;;10.40
15062;BMP180;7630;50.306;8.566;2023-04-09T20:58:42;98525.00;;;10.20
15062;BMP180;7630;50.306;8.566;2023-04-09T21:02:44;98523.00;;;10.10
15062;BMP180;7630;50.306;8.566;2023-04-09T21:06:45;98512.00;;;9.90
15062;BMP180;7630;50.306;8.566;2023-04-09T21:10:47;98503.00;;;9.20
15062;BMP180;7630;50.306;8.566;2023-04-09T21:14:48;98512.00;;;8.90
15062;BMP180;7630;50.306;8.566;2023-04-09T21:18:49;98501.00;;;9.60
15062;BMP180;7630;50.306;8.566;2023-04-09T21:22:51;98488.00;;;9.60
15062;BMP180;7630;50.306;8.566;2023-04-09T21:26:54;98491.00;;;9.40
15062;BMP180;7630;50.306;8.566;2023-04-09T21:30:55;98491.00;;;9.40
15062;BMP180;7630;50.306;8.566;2023-04-09T21:34:57;98499.00;;;9.40
15062;BMP180;7630;50.306;8.566;2023-04-09T21:38:58;98488.00;;;9.00
15062;BMP180;7630;50.306;8.566;2023-04-09T21:42:59;98492.00;;;9.00
15062;BMP180;7630;50.306;8.566;2023-04-09T21:47:00;98490.00;;;8.90
15062;BMP180;7630;50.306;8.566;2023-04-09T21:51:09;98498.00;;;9.00
15062;BMP180;7630;50.306;8.566;2023-04-09T21:55:10;98493.00;;;8.90
15062;BMP180;7630;50.306;8.566;2023-04-09T21:59:11;98493.00;;;9.00
15062;BMP180;7630;50.306;8.566;2023-04-09T22:03:12;98488.00;;;8.90
15062;BMP180;7630;50.306;8.566;2023-04-09T22:07:14;98498.00;;;8.80
15062;BMP180;7630;50.306;8.566;2023-04-09T22:11:15;98486.00;;;8.60
15062;BMP180;7630;50.306;8.566;2023-04-09T22:15:18;98495.00;;;8.60
15062;BMP180;7630;50.306;8.566;2023-04-09T22:19:19;98497.00;;;8.80
15062;BMP180;7630;50.306;8.566;2023-04-09T22:23:20;98491.00;;;8.70
15062;BMP180;7630;50.306;8.566;2023-04-09T22:27:21;98493.00;;;8.40
15062;BMP180;7630;50.306;8.566;2023-04-09T22:31:22;98488.00;;;8.40
15062;BMP180;7630;50.306;8.566;2023-04-09T22:35:23;98486.00;;;8.20
15062;BMP180;7630;50.306;8.566;2023-04-09T22:39:25;98485.00;;;8.30
15062;BMP180;7630;50.306;8.566;2023-04-09T22:43:26;98477.00;;;8.50
15062;BMP180;7630;50.306;8.566;2023-04-09T22:47:27;98480.00;;;8.20
15062;BMP180;7630;50.306;8.566;2023-04-09T22:51:29;98470.00;;;8.10
15062;BMP180;7630;50.306;8.566;2023-04-09T22:55:30;98474.00;;;8.30
15062;BMP180;7630;50.306;8.566;2023-04-09T22:59:31;98473.00;;;8.10
15062;BMP180;7630;50.306;8.566;2023-04-09T23:03:34;98473.00;;;8.10
15062;BMP180;7630;50.306;8.566;2023-04-09T23:07:36;98482.00;;;8.20
15062;BMP180;7630;50.306;8.566;2023-04-09T23:11:37;98466.00;;;8.00
15062;BMP180;7630;50.306;8.566;2023-04-09T23:15:40;98473.00;;;8.10
15062;BMP180;7630;50.306;8.566;2023-04-09T23:19:41;98470.00;;;8.00
15062;BMP180;7630;50.306;8.566;2023-04-09T23:23:43;98469.00;;;7.60
15062;BMP180;7630;50.306;8.566;2023-04-09T23:27:44;98469.00;;;7.50
15062;BMP180;7630;50.306;8.566;2023-04-09T23:31:46;98475.00;;;7.70
15062;BMP180;7630;50.306;8.566;2023-04-09T23:35:47;98477.00;;;7.70
15062;BMP180;7630;50.306;8.566;2023-04-09T23:39:48;98472.00;;;7.40
15062;BMP180;7630;50.306;8.566;2023-04-09T23:43:49;98464.00;;;7.50
15062;BMP180;7630;50.306;8.566;2023-04-09T23:47:51;98464.00;;;7.60
15062;BMP180;7630;50.306;8.566;2023-04-09T23:51:52;98468.00;;;7.60
15062;BMP180;7630;50.306;8.566;2023-04-09T23:55:53;98472.00;;;7.50